createdAt,value
2022-08-18T00:00:15.312Z,0.00
2022-08-18T00:01:16.642Z,0.00
2022-08-18T00:02:15.277Z,0.00
2022-08-18T00:03:53.095Z,0.00
2022-08-18T00:04:35.789Z,0.00
2022-08-18T00:05:16.083Z,0.00
2022-08-18T00:06:15.051Z,0.00
2022-08-18T00:07:15.063Z,0.00
2022-08-18T00:08:15.045Z,0.00
2022-08-18T00:09:15.050Z,0.00
2022-08-18T00:10:17.959Z,0.00
2022-08-18T00:11:15.031Z,0.00
2022-08-18T00:12:14.992Z,0.00
2022-08-18T00:13:15.001Z,0.00
2022-08-18T00:14:21.430Z,0.00
2022-08-18T00:15:15.975Z,0.00
2022-08-18T00:16:14.968Z,0.00
2022-08-18T00:17:14.952Z,0.00
2022-08-18T00:18:14.931Z,0.00
2022-08-18T00:19:14.934Z,0.00
2022-08-18T00:20:14.912Z,0.00
2022-08-18T00:21:14.911Z,0.00
2022-08-18T00:22:15.649Z,0.00
2022-08-18T00:23:14.897Z,0.00
2022-08-18T00:24:14.862Z,0.00
2022-08-18T00:25:14.863Z,0.00
2022-08-18T00:26:14.833Z,0.00
2022-08-18T00:27:14.852Z,0.00
2022-08-18T00:28:14.823Z,0.00
2022-08-18T00:29:14.822Z,0.00
2022-08-18T00:30:14.794Z,0.00
2022-08-18T00:31:14.815Z,0.00
2022-08-18T00:32:14.791Z,0.00
2022-08-18T00:33:14.790Z,0.00
2022-08-18T00:34:14.763Z,0.00
2022-08-18T00:35:14.753Z,0.00
2022-08-18T00:36:14.723Z,0.00
2022-08-18T00:37:14.732Z,0.00
2022-08-18T00:38:24.800Z,0.00
2022-08-18T00:39:15.708Z,0.00
2022-08-18T00:40:14.816Z,0.00
2022-08-18T00:41:14.684Z,0.00
2022-08-18T00:42:27.609Z,0.00
2022-08-18T00:43:15.663Z,0.00
2022-08-18T00:44:14.644Z,0.00
2022-08-18T00:45:14.655Z,0.00
2022-08-18T00:46:14.624Z,0.00
2022-08-18T00:47:14.614Z,0.00
2022-08-18T00:48:15.586Z,0.00
2022-08-18T00:49:14.585Z,0.00
2022-08-18T00:50:15.508Z,0.00
2022-08-18T00:51:14.599Z,0.00
2022-08-18T00:52:14.563Z,0.00
2022-08-18T00:53:14.534Z,0.00
2022-08-18T00:54:14.548Z,0.00
2022-08-18T00:55:14.514Z,0.00
2022-08-18T00:56:14.515Z,0.00
2022-08-18T00:57:14.585Z,0.00
2022-08-18T00:58:14.492Z,0.00
2022-08-18T00:59:14.464Z,0.00
2022-08-18T01:00:14.462Z,0.00
2022-08-18T01:01:14.457Z,0.00
2022-08-18T01:02:14.443Z,0.00
2022-08-18T01:03:14.419Z,0.00
2022-08-18T01:04:14.431Z,0.00
2022-08-18T01:05:14.392Z,0.00
2022-08-18T01:06:14.477Z,0.00
2022-08-18T01:07:14.366Z,0.00
2022-08-18T01:08:14.413Z,0.00
2022-08-18T01:09:14.356Z,0.00
2022-08-18T01:10:14.366Z,0.00
2022-08-18T01:11:14.326Z,0.00
2022-08-18T01:12:44.165Z,0.00
2022-08-18T01:13:15.307Z,0.00
2022-08-18T01:14:14.313Z,0.00
2022-08-18T01:15:28.205Z,0.00
2022-08-18T01:16:15.287Z,0.00
2022-08-18T01:17:14.254Z,0.00
2022-08-18T01:18:14.254Z,0.00
2022-08-18T01:19:14.235Z,0.00
2022-08-18T01:20:14.227Z,0.00
2022-08-18T01:21:14.229Z,0.00
2022-08-18T01:22:14.233Z,0.00
2022-08-18T01:23:14.297Z,0.00
2022-08-18T01:24:17.421Z,0.00
2022-08-18T01:25:15.165Z,0.00
2022-08-18T01:26:14.174Z,0.00
2022-08-18T01:27:14.154Z,0.00
2022-08-18T01:28:14.165Z,0.00
2022-08-18T01:29:18.778Z,0.00
2022-08-18T01:30:15.125Z,0.00
2022-08-18T01:31:14.095Z,0.00
2022-08-18T01:32:14.095Z,0.00
2022-08-18T01:33:14.858Z,0.00
2022-08-18T01:34:14.882Z,0.00
2022-08-18T01:35:14.065Z,0.00
2022-08-18T01:36:14.059Z,0.00
2022-08-18T01:37:14.024Z,0.00
2022-08-18T01:38:14.037Z,0.00
2022-08-18T01:39:14.515Z,0.00
2022-08-18T01:41:23.717Z,0.00
2022-08-18T01:41:28.764Z,0.00
2022-08-18T01:42:15.052Z,0.00
2022-08-18T01:43:14.135Z,0.00
2022-08-18T01:44:13.966Z,0.00
2022-08-18T01:45:13.955Z,0.00
2022-08-18T01:46:13.954Z,0.00
2022-08-18T01:47:13.915Z,0.00
2022-08-18T01:48:13.969Z,0.00
2022-08-18T01:49:13.896Z,0.00
2022-08-18T01:50:14.774Z,0.00
2022-08-18T01:51:13.875Z,0.00
2022-08-18T01:52:13.890Z,0.00
2022-08-18T01:53:14.737Z,0.00
2022-08-18T01:54:14.004Z,0.00
2022-08-18T01:55:14.553Z,0.00
2022-08-18T01:56:13.841Z,0.00
2022-08-18T01:57:13.806Z,0.00
2022-08-18T01:58:13.805Z,0.00
2022-08-18T01:59:13.786Z,0.00
2022-08-18T02:00:13.785Z,0.00
2022-08-18T02:01:13.792Z,0.00
2022-08-18T02:02:18.418Z,0.00
2022-08-18T02:03:13.746Z,0.00
2022-08-18T02:04:33.795Z,0.00
2022-08-18T02:05:14.715Z,0.00
2022-08-18T02:06:14.682Z,0.00
2022-08-18T02:07:14.406Z,0.00
2022-08-18T02:08:13.706Z,0.00
2022-08-18T02:09:13.665Z,0.00
2022-08-18T02:10:16.450Z,0.00
2022-08-18T02:11:13.635Z,0.00
2022-08-18T02:12:14.034Z,0.00
2022-08-18T02:13:13.621Z,0.00
2022-08-18T02:14:14.507Z,0.00
2022-08-18T02:15:13.599Z,0.00
2022-08-18T02:16:14.155Z,0.00
2022-08-18T02:17:14.477Z,0.00
2022-08-18T02:18:14.277Z,0.00
2022-08-18T02:19:14.538Z,0.00
2022-08-18T02:20:13.544Z,0.00
2022-08-18T02:21:14.238Z,0.00
2022-08-18T02:22:15.278Z,0.00
2022-08-18T02:23:14.407Z,0.00
2022-08-18T02:24:13.617Z,0.00
2022-08-18T02:25:13.600Z,0.00
2022-08-18T02:26:13.488Z,0.00
2022-08-18T02:27:14.154Z,0.00
2022-08-18T02:28:13.529Z,0.00
2022-08-18T02:29:13.620Z,0.00
2022-08-18T02:30:13.431Z,0.00
2022-08-18T02:31:13.409Z,0.00
2022-08-18T02:32:13.408Z,0.00
2022-08-18T02:33:13.440Z,0.00
2022-08-18T02:34:14.127Z,0.00
2022-08-18T02:35:13.456Z,0.00
2022-08-18T02:36:13.357Z,0.00
2022-08-18T02:37:15.636Z,0.00
2022-08-18T02:38:13.996Z,0.00
2022-08-18T02:39:14.001Z,0.00
2022-08-18T02:40:13.309Z,0.00
2022-08-18T02:41:13.299Z,0.00
2022-08-18T02:42:13.290Z,0.00
2022-08-18T02:43:14.028Z,0.00
2022-08-18T02:44:13.258Z,0.00
2022-08-18T02:45:13.959Z,0.00
2022-08-18T02:46:13.246Z,0.00
2022-08-18T02:47:13.215Z,0.00
2022-08-18T02:48:13.207Z,0.00
2022-08-18T02:49:13.198Z,0.00
2022-08-18T02:50:13.195Z,0.00
2022-08-18T02:51:13.896Z,0.00
2022-08-18T02:52:13.191Z,0.00
2022-08-18T02:53:13.136Z,0.00
2022-08-18T02:54:13.151Z,0.00
2022-08-18T02:55:13.127Z,0.00
2022-08-18T02:56:13.157Z,0.00
2022-08-18T02:57:13.101Z,0.00
2022-08-18T02:58:13.100Z,0.00
2022-08-18T02:59:13.134Z,0.00
2022-08-18T03:00:13.116Z,0.00
2022-08-18T03:01:13.099Z,0.00
2022-08-18T03:02:13.999Z,0.00
2022-08-18T03:03:13.034Z,0.00
2022-08-18T03:04:13.027Z,0.00
2022-08-18T03:05:14.689Z,0.00
2022-08-18T03:06:13.008Z,0.00
2022-08-18T03:07:13.767Z,0.00
2022-08-18T03:08:13.067Z,0.00
2022-08-18T03:09:12.947Z,0.00
2022-08-18T03:10:31.717Z,0.00
2022-08-18T03:11:13.921Z,0.00
2022-08-18T03:12:12.962Z,0.00
2022-08-18T03:13:12.919Z,0.00
2022-08-18T03:14:13.611Z,0.00
2022-08-18T03:15:13.635Z,0.00
2022-08-18T03:16:13.677Z,0.00
2022-08-18T03:17:12.847Z,0.00
2022-08-18T03:18:13.738Z,0.00
2022-08-18T03:19:12.842Z,0.00
2022-08-18T03:20:12.826Z,0.00
2022-08-18T03:21:12.807Z,0.00
2022-08-18T03:22:27.451Z,0.00
2022-08-18T03:25:24.964Z,0.00
2022-08-18T03:26:24.924Z,0.00
2022-08-18T03:27:24.934Z,0.00
2022-08-18T03:28:24.903Z,0.00
2022-08-18T03:29:30.967Z,0.00
2022-08-18T03:30:25.914Z,0.00
2022-08-18T03:31:24.873Z,0.00
2022-08-18T03:32:24.853Z,0.00
2022-08-18T03:33:24.853Z,0.00
2022-08-18T03:34:24.816Z,0.00
2022-08-18T03:35:24.824Z,0.00
2022-08-18T03:36:24.824Z,0.00
2022-08-18T03:37:24.934Z,0.00
2022-08-18T03:38:24.766Z,0.00
2022-08-18T03:39:24.786Z,0.00
2022-08-18T03:40:25.564Z,0.00
2022-08-18T03:41:43.605Z,0.00
2022-08-18T03:42:26.538Z,0.00
2022-08-18T03:43:50.836Z,0.00
2022-08-18T03:44:25.757Z,0.00
2022-08-18T03:45:24.708Z,0.00
2022-08-18T03:46:25.503Z,0.00
2022-08-18T03:47:25.418Z,0.00
2022-08-18T03:48:25.456Z,0.00
2022-08-18T03:49:24.920Z,0.00
2022-08-18T03:50:25.541Z,0.00
2022-08-18T03:51:25.414Z,0.00
2022-08-18T03:52:24.646Z,0.00
2022-08-18T03:53:25.491Z,0.00
2022-08-18T03:54:24.634Z,4.00
2022-08-18T03:55:24.593Z,4.00
2022-08-18T03:56:24.567Z,4.00
2022-08-18T03:57:24.864Z,4.00
2022-08-18T03:58:25.383Z,4.00
2022-08-18T03:59:25.425Z,8.00
2022-08-18T04:00:25.328Z,4.00
2022-08-18T04:01:27.286Z,8.00
2022-08-18T04:02:24.514Z,8.00
2022-08-18T04:03:24.805Z,12.00
2022-08-18T04:04:25.437Z,12.00
2022-08-18T04:05:24.618Z,12.00
2022-08-18T04:06:30.229Z,16.00
2022-08-18T04:07:26.325Z,20.00
2022-08-18T04:08:25.196Z,20.00
2022-08-18T04:09:24.448Z,24.00
2022-08-18T04:10:24.415Z,24.00
2022-08-18T04:11:24.434Z,28.00
2022-08-18T04:12:24.396Z,32.00
2022-08-18T04:13:24.975Z,36.00
2022-08-18T04:14:24.383Z,40.00
2022-08-18T04:15:24.783Z,40.00
2022-08-18T04:16:24.434Z,48.00
2022-08-18T04:17:25.126Z,52.00
2022-08-18T04:18:25.135Z,56.00
2022-08-18T04:19:26.681Z,64.00
2022-08-18T04:20:24.325Z,72.00
2022-08-18T04:21:25.096Z,76.00
2022-08-18T04:22:24.315Z,84.00
2022-08-18T04:23:24.296Z,88.00
2022-08-18T04:24:24.274Z,96.00
2022-08-18T04:25:24.268Z,104.00
2022-08-18T04:26:24.246Z,108.00
2022-08-18T04:27:24.255Z,116.00
2022-08-18T04:28:24.245Z,124.00
2022-08-18T04:29:24.225Z,136.00
2022-08-18T04:30:25.005Z,144.00
2022-08-18T04:31:24.214Z,156.00
2022-08-18T04:32:24.275Z,164.00
2022-08-18T04:33:25.164Z,176.00
2022-08-18T04:34:24.140Z,188.00
2022-08-18T04:35:24.895Z,200.00
2022-08-18T04:36:24.118Z,212.00
2022-08-18T04:37:24.115Z,224.00
2022-08-18T04:38:25.006Z,232.00
2022-08-18T04:39:24.100Z,248.00
2022-08-18T04:40:25.418Z,260.00
2022-08-18T04:41:24.838Z,272.00
2022-08-18T04:42:24.105Z,284.00
2022-08-18T04:43:24.799Z,292.00
2022-08-18T04:44:24.034Z,304.00
2022-08-18T04:45:24.035Z,316.00
2022-08-18T04:46:24.534Z,324.00
2022-08-18T04:47:24.014Z,336.00
2022-08-18T04:48:23.995Z,344.00
2022-08-18T04:49:23.985Z,356.00
2022-08-18T04:50:24.874Z,360.00
2022-08-18T04:52:26.686Z,368.00
2022-08-18T04:52:40.737Z,376.00
2022-08-18T04:53:24.938Z,388.00
2022-08-18T04:54:24.125Z,396.00
2022-08-18T04:55:23.925Z,404.00
2022-08-18T04:56:24.135Z,412.00
2022-08-18T04:57:24.576Z,420.00
2022-08-18T04:58:23.877Z,424.00
2022-08-18T04:59:23.889Z,432.00
2022-08-18T05:00:23.965Z,436.00
2022-08-18T05:01:24.612Z,440.00
2022-08-18T05:02:24.611Z,448.00
2022-08-18T05:03:24.518Z,452.00
2022-08-18T05:04:23.818Z,456.00
2022-08-18T05:05:23.806Z,460.00
2022-08-18T05:06:24.617Z,464.00
2022-08-18T05:07:24.527Z,472.00
2022-08-18T05:08:24.545Z,480.00
2022-08-18T05:09:24.450Z,492.00
2022-08-18T05:10:23.745Z,500.00
2022-08-18T05:11:23.745Z,512.00
2022-08-18T05:12:25.933Z,520.00
2022-08-18T05:13:23.745Z,536.00
2022-08-18T05:14:23.725Z,544.00
2022-08-18T05:15:23.703Z,560.00
2022-08-18T05:16:27.212Z,576.00
2022-08-18T05:17:23.676Z,592.00
2022-08-18T05:18:23.693Z,608.00
2022-08-18T05:19:26.674Z,620.00
2022-08-18T05:20:24.095Z,628.00
2022-08-18T05:21:24.636Z,636.00
2022-08-18T05:22:30.369Z,640.00
2022-08-18T05:23:24.625Z,648.00
2022-08-18T05:24:24.115Z,652.00
2022-08-18T05:25:24.338Z,664.00
2022-08-18T05:26:24.496Z,672.00
2022-08-18T05:27:23.565Z,688.00
2022-08-18T05:28:23.546Z,712.00
2022-08-18T05:29:23.545Z,744.00
2022-08-18T05:30:23.677Z,792.00
2022-08-18T05:31:23.543Z,856.00
2022-08-18T05:32:40.866Z,928.00
2022-08-18T05:33:24.506Z,996.00
2022-08-18T05:34:23.975Z,1072.00
2022-08-18T05:35:23.899Z,1156.00
2022-08-18T05:36:23.996Z,1248.00
2022-08-18T05:37:23.458Z,1336.00
2022-08-18T05:38:23.438Z,1408.00
2022-08-18T05:39:23.442Z,1468.00
2022-08-18T05:40:23.456Z,1536.00
2022-08-18T05:41:24.193Z,1580.00
2022-08-18T05:42:23.643Z,1608.00
2022-08-18T05:43:23.513Z,1636.00
2022-08-18T05:44:23.356Z,1672.00
2022-08-18T05:45:23.388Z,1708.00
2022-08-18T05:46:23.356Z,1724.00
2022-08-18T05:47:23.356Z,1716.00
2022-08-18T05:48:23.329Z,1728.00
2022-08-18T05:49:23.355Z,1740.00
2022-08-18T05:50:23.296Z,1732.00
2022-08-18T05:51:23.295Z,1720.00
2022-08-18T05:52:24.046Z,1708.00
2022-08-18T05:53:23.278Z,1712.00
2022-08-18T05:54:23.285Z,1712.00
2022-08-18T05:55:23.246Z,1720.00
2022-08-18T05:56:23.224Z,1716.00
2022-08-18T05:57:23.425Z,1720.00
2022-08-18T05:58:23.225Z,1740.00
2022-08-18T05:59:23.236Z,1760.00
2022-08-18T06:00:23.176Z,1772.00
2022-08-18T06:01:23.186Z,1784.00
2022-08-18T06:02:23.173Z,1808.00
2022-08-18T06:03:23.946Z,1840.00
2022-08-18T06:04:23.216Z,1880.00
2022-08-18T06:05:23.128Z,1920.00
2022-08-18T06:06:23.127Z,1956.00
2022-08-18T06:07:23.186Z,1984.00
2022-08-18T06:08:23.155Z,1980.00
2022-08-18T06:09:23.187Z,1948.00
2022-08-18T06:10:23.066Z,1920.00
2022-08-18T06:11:23.150Z,1896.00
2022-08-18T06:12:23.076Z,1876.00
2022-08-18T06:13:23.181Z,1848.00
2022-08-18T06:14:23.361Z,1812.00
2022-08-18T06:15:24.036Z,1756.00
2022-08-18T06:16:22.996Z,1704.00
2022-08-18T06:17:23.007Z,1664.00
2022-08-18T06:18:22.978Z,1636.00
2022-08-18T06:19:22.976Z,1612.00
2022-08-18T06:20:22.959Z,1596.00
2022-08-18T06:21:23.176Z,1596.00
2022-08-18T06:22:22.934Z,1604.00
2022-08-18T06:23:22.998Z,1628.00
2022-08-18T06:24:22.998Z,1660.00
2022-08-18T06:25:22.978Z,1696.00
2022-08-18T06:26:22.889Z,1744.00
2022-08-18T06:27:22.926Z,1780.00
2022-08-18T06:28:22.867Z,1816.00
2022-08-18T06:29:22.866Z,1848.00
2022-08-18T06:30:22.847Z,1888.00
2022-08-18T06:31:29.216Z,1932.00
2022-08-18T06:32:23.825Z,1996.00
2022-08-18T06:33:22.816Z,2052.00
2022-08-18T06:34:22.812Z,2096.00
2022-08-18T06:35:22.799Z,2128.00
2022-08-18T06:36:23.520Z,2148.00
2022-08-18T06:37:22.797Z,2160.00
2022-08-18T06:38:22.765Z,2176.00
2022-08-18T06:39:22.747Z,2200.00
2022-08-18T06:40:22.871Z,2216.00
2022-08-18T06:41:40.746Z,2236.00
2022-08-18T06:42:23.783Z,2264.00
2022-08-18T06:43:22.707Z,2276.00
2022-08-18T06:44:22.688Z,2272.00
2022-08-18T06:45:22.697Z,2264.00
2022-08-18T06:46:23.658Z,2240.00
2022-08-18T06:47:22.667Z,2212.00
2022-08-18T06:48:22.638Z,2184.00
2022-08-18T06:49:22.649Z,2164.00
2022-08-18T06:50:22.620Z,2164.00
2022-08-18T06:51:22.618Z,2120.00
2022-08-18T06:52:22.598Z,2048.00
2022-08-18T06:53:27.156Z,1960.00
2022-08-18T06:54:24.497Z,1884.00
2022-08-18T06:55:22.568Z,1872.00
2022-08-18T06:56:26.678Z,1828.00
2022-08-18T06:57:22.549Z,1752.00
2022-08-18T06:58:22.528Z,1752.00
2022-08-18T06:59:22.530Z,1928.00
2022-08-18T07:00:22.520Z,2040.00
2022-08-18T07:01:22.537Z,2228.00
2022-08-18T07:02:22.498Z,2368.00
2022-08-18T07:03:22.497Z,2496.00
2022-08-18T07:04:22.858Z,2568.00
2022-08-18T07:05:22.440Z,2616.00
2022-08-18T07:06:22.451Z,2728.00
2022-08-18T07:07:22.459Z,2788.00
2022-08-18T07:08:22.428Z,2852.00
2022-08-18T07:09:22.412Z,2916.00
2022-08-18T07:10:22.398Z,2960.00
2022-08-18T07:11:22.381Z,3044.00
2022-08-18T07:12:22.399Z,3124.00
2022-08-18T07:13:22.369Z,3164.00
2022-08-18T07:14:22.382Z,3172.00
2022-08-18T07:15:22.348Z,3108.00
2022-08-18T07:16:40.354Z,2960.00
2022-08-18T07:17:23.318Z,2828.00
2022-08-18T07:18:23.314Z,2712.00
2022-08-18T07:19:22.291Z,2752.00
2022-08-18T07:20:22.291Z,2688.00
2022-08-18T07:21:22.260Z,2452.00
2022-08-18T07:22:22.268Z,2416.00
2022-08-18T07:23:23.288Z,2436.00
2022-08-18T07:24:25.378Z,2148.00
2022-08-18T07:25:22.379Z,1988.00
2022-08-18T07:26:22.226Z,2012.00
2022-08-18T07:27:22.189Z,2036.00
2022-08-18T07:28:22.199Z,2176.00
2022-08-18T07:29:22.171Z,1964.00
2022-08-18T07:30:22.179Z,1776.00
2022-08-18T07:31:22.149Z,1996.00
2022-08-18T07:32:22.156Z,2216.00
2022-08-18T07:33:22.129Z,2076.00
2022-08-18T07:34:22.127Z,1872.00
2022-08-18T07:35:22.100Z,1852.00
2022-08-18T07:36:22.110Z,1808.00
2022-08-18T07:37:27.922Z,1836.00
2022-08-18T07:39:23.102Z,2712.00
2022-08-18T07:40:22.062Z,2916.00
2022-08-18T07:41:22.042Z,2832.00
2022-08-18T07:42:37.345Z,3052.00
2022-08-18T07:43:23.969Z,3364.00
2022-08-18T07:44:22.010Z,3756.00
2022-08-18T07:45:23.953Z,4108.00
2022-08-18T07:46:21.991Z,3908.00
2022-08-18T07:47:21.971Z,3588.00
2022-08-18T07:48:39.683Z,3440.00
2022-08-18T07:49:22.943Z,3404.00
2022-08-18T07:50:42.135Z,3316.00
2022-08-18T07:51:22.914Z,3144.00
2022-08-18T07:52:36.263Z,3024.00
2022-08-18T07:53:22.973Z,3124.00
2022-08-18T07:54:47.718Z,3120.00
2022-08-18T07:55:22.871Z,3016.00
2022-08-18T07:56:21.879Z,3084.00
2022-08-18T07:57:21.850Z,3232.00
2022-08-18T07:58:21.851Z,2960.00
2022-08-18T07:59:21.848Z,2876.00
2022-08-18T08:00:40.947Z,2844.00
2022-08-18T08:01:22.842Z,2788.00
2022-08-18T08:02:21.810Z,2928.00
2022-08-18T08:03:21.782Z,2816.00
2022-08-18T08:04:25.688Z,2560.00
2022-08-18T08:05:21.760Z,2404.00
2022-08-18T08:06:21.766Z,2460.00
2022-08-18T08:07:25.501Z,2492.00
2022-08-18T08:08:25.105Z,2656.00
2022-08-18T08:09:21.717Z,2744.00
2022-08-18T08:10:21.821Z,2756.00
2022-08-18T08:11:21.692Z,2732.00
2022-08-18T08:12:21.696Z,2864.00
2022-08-18T08:13:43.702Z,2904.00
2022-08-18T08:14:26.320Z,2804.00
2022-08-18T08:15:27.100Z,2608.00
2022-08-18T08:16:22.650Z,2564.00
2022-08-18T08:17:21.651Z,2612.00
2022-08-18T08:18:21.631Z,2716.00
2022-08-18T08:19:36.516Z,2872.00
2022-08-18T08:20:22.602Z,3104.00
2022-08-18T08:21:21.588Z,3028.00
2022-08-18T08:22:21.582Z,2932.00
2022-08-18T08:23:21.552Z,2752.00
2022-08-18T08:24:21.568Z,2768.00
2022-08-18T08:25:45.323Z,2820.00
2022-08-18T08:26:22.583Z,2992.00
2022-08-18T08:27:21.513Z,3416.00
2022-08-18T08:28:21.512Z,3864.00
2022-08-18T08:29:21.495Z,4268.00
2022-08-18T08:30:21.546Z,4360.00
2022-08-18T08:31:38.005Z,4276.00
2022-08-18T08:32:22.517Z,3984.00
2022-08-18T08:33:21.534Z,3564.00
2022-08-18T08:34:21.452Z,3388.00
2022-08-18T08:35:49.687Z,3264.00
2022-08-18T08:36:22.432Z,3216.00
2022-08-18T08:37:21.414Z,3184.00
2022-08-18T08:38:42.966Z,3112.00
2022-08-18T08:39:22.376Z,3004.00
2022-08-18T08:40:21.485Z,2936.00
2022-08-18T08:41:21.370Z,2852.00
2022-08-18T08:42:32.126Z,2964.00
2022-08-18T08:43:22.424Z,2920.00
2022-08-18T08:44:21.342Z,3000.00
2022-08-18T08:45:21.404Z,3008.00
2022-08-18T08:46:21.323Z,2844.00
2022-08-18T08:47:22.938Z,2728.00
2022-08-18T08:48:21.304Z,2700.00
2022-08-18T08:49:21.264Z,2772.00
2022-08-18T08:50:21.264Z,2804.00
2022-08-18T08:51:21.244Z,2864.00
2022-08-18T08:52:21.244Z,3000.00
2022-08-18T08:53:21.237Z,3208.00
2022-08-18T08:54:21.233Z,3488.00
2022-08-18T08:55:21.196Z,3724.00
2022-08-18T08:56:21.195Z,3804.00
2022-08-18T08:57:21.173Z,3872.00
2022-08-18T08:58:21.183Z,4076.00
2022-08-18T08:59:21.154Z,3980.00
2022-08-18T09:00:21.154Z,3700.00
2022-08-18T09:01:21.168Z,3488.00
2022-08-18T09:02:44.774Z,3272.00
2022-08-18T09:03:29.996Z,3156.00
2022-08-18T09:04:22.106Z,3100.00
2022-08-18T09:05:21.084Z,3032.00
2022-08-18T09:06:21.105Z,2856.00
2022-08-18T09:07:21.825Z,2688.00
2022-08-18T09:08:21.066Z,2592.00
2022-08-18T09:09:21.192Z,2568.00
2022-08-18T09:10:21.208Z,2556.00
2022-08-18T09:11:21.018Z,2508.00
2022-08-18T09:12:21.176Z,2572.00
2022-08-18T09:13:23.321Z,2800.00
2022-08-18T09:14:21.999Z,3060.00
2022-08-18T09:15:21.006Z,3280.00
2022-08-18T09:16:21.011Z,3300.00
2022-08-18T09:17:20.946Z,3180.00
2022-08-18T09:18:20.957Z,3136.00
2022-08-18T09:19:20.926Z,3324.00
2022-08-18T09:20:20.938Z,3684.00
2022-08-18T09:21:21.647Z,3912.00
2022-08-18T09:22:20.906Z,3968.00
2022-08-18T09:23:20.877Z,3936.00
2022-08-18T09:24:20.887Z,3904.00
2022-08-18T09:25:20.857Z,3888.00
2022-08-18T09:26:21.678Z,3908.00
2022-08-18T09:27:20.949Z,3840.00
2022-08-18T09:28:20.848Z,3660.00
2022-08-18T09:29:20.811Z,3456.00
2022-08-18T09:30:20.818Z,3256.00
2022-08-18T09:31:20.786Z,3028.00
2022-08-18T09:32:23.042Z,2776.00
2022-08-18T09:33:20.779Z,2532.00
2022-08-18T09:34:20.768Z,2348.00
2022-08-18T09:36:21.749Z,2104.00
2022-08-18T09:38:21.718Z,1996.00
2022-08-18T09:39:23.242Z,1996.00
2022-08-18T09:40:33.370Z,2044.00
2022-08-18T09:41:21.729Z,2132.00
2022-08-18T09:42:20.679Z,2212.00
2022-08-18T09:43:21.668Z,2240.00
2022-08-18T09:44:26.637Z,2260.00
2022-08-18T09:45:21.619Z,2312.00
2022-08-18T09:46:20.629Z,2380.00
2022-08-18T09:47:20.609Z,2488.00
2022-08-18T09:48:25.335Z,2652.00
2022-08-18T09:49:21.710Z,2800.00
2022-08-18T09:51:23.265Z,3068.00
2022-08-18T09:52:20.569Z,3280.00
2022-08-18T09:53:20.541Z,3720.00
2022-08-18T09:54:21.314Z,4232.00
2022-08-18T09:55:20.521Z,4744.00
2022-08-18T09:56:28.670Z,5452.00
2022-08-18T09:57:21.507Z,6084.00
2022-08-18T09:59:22.212Z,7200.00
2022-08-18T10:00:24.431Z,7964.00
2022-08-18T10:01:21.504Z,8620.00
2022-08-18T10:02:28.107Z,8936.00
2022-08-18T10:03:25.943Z,9060.00
2022-08-18T10:05:22.512Z,9432.00
2022-08-18T10:06:20.704Z,9648.00
2022-08-18T10:07:20.386Z,9896.00
2022-08-18T10:08:24.003Z,10384.00
2022-08-18T10:09:36.267Z,10584.00
2022-08-18T10:11:22.063Z,10320.00
2022-08-18T10:12:20.360Z,9972.00
2022-08-18T10:13:21.560Z,9784.00
2022-08-18T10:14:21.163Z,9596.00
2022-08-18T10:16:21.320Z,8836.00
2022-08-18T10:17:23.525Z,8272.00
2022-08-18T10:18:20.292Z,7700.00
2022-08-18T10:19:23.183Z,6916.00
2022-08-18T10:20:26.034Z,6380.00
2022-08-18T10:21:24.421Z,6088.00
2022-08-18T10:22:20.224Z,5784.00
2022-08-18T10:23:21.196Z,5276.00
2022-08-18T10:24:36.971Z,4788.00
2022-08-18T10:25:23.053Z,4568.00
2022-08-18T10:26:21.037Z,4600.00
2022-08-18T10:27:20.172Z,4708.00
2022-08-18T10:28:20.183Z,4596.00
2022-08-18T10:29:20.145Z,4292.00
2022-08-18T10:30:20.132Z,4116.00
2022-08-18T10:31:24.124Z,4156.00
2022-08-18T10:32:21.996Z,4608.00
2022-08-18T10:33:20.093Z,4444.00
2022-08-18T10:34:20.093Z,4484.00
2022-08-18T10:35:20.591Z,4520.00
2022-08-18T10:36:20.061Z,4640.00
2022-08-18T10:37:20.090Z,4684.00
2022-08-18T10:38:21.080Z,4732.00
2022-08-18T10:39:20.023Z,4756.00
2022-08-18T10:41:21.001Z,4752.00
2022-08-18T10:42:20.007Z,4712.00
2022-08-18T10:43:41.459Z,4696.00
2022-08-18T10:44:29.236Z,4756.00
2022-08-18T10:45:23.799Z,4720.00
2022-08-18T10:46:30.601Z,4656.00
2022-08-18T10:47:20.925Z,4676.00
2022-08-18T10:48:20.714Z,4756.00
2022-08-18T10:49:19.916Z,4984.00
2022-08-18T10:50:19.926Z,5156.00
2022-08-18T10:52:21.174Z,5104.00
2022-08-18T10:54:20.880Z,5268.00
2022-08-18T10:55:19.857Z,5412.00
2022-08-18T10:56:22.557Z,5528.00
2022-08-18T10:57:21.177Z,5600.00
2022-08-18T10:58:19.826Z,5752.00
2022-08-18T10:59:20.026Z,5448.00
2022-08-18T11:00:20.809Z,5248.00
2022-08-18T11:01:19.785Z,5292.00
2022-08-18T11:02:19.793Z,5528.00
2022-08-18T11:03:50.578Z,5836.00
2022-08-18T11:04:32.828Z,5964.00
2022-08-18T11:05:20.994Z,6080.00
2022-08-18T11:06:21.579Z,6316.00
2022-08-18T11:07:20.091Z,6484.00
2022-08-18T11:08:20.591Z,6552.00
2022-08-18T11:09:20.499Z,6556.00
2022-08-18T11:10:57.676Z,6632.00
2022-08-18T11:11:36.280Z,6716.00
2022-08-18T11:12:20.679Z,6752.00
2022-08-18T11:13:20.127Z,6860.00
2022-08-18T11:14:20.138Z,7016.00
2022-08-18T11:15:22.421Z,7088.00
2022-08-18T11:16:20.331Z,7148.00
2022-08-18T11:17:19.609Z,7192.00
2022-08-18T11:18:19.590Z,7280.00
2022-08-18T11:19:19.597Z,7388.00
2022-08-18T11:20:19.574Z,7544.00
2022-08-18T11:21:20.369Z,7820.00
2022-08-18T11:23:21.490Z,8364.00
2022-08-18T11:24:19.583Z,8432.00
2022-08-18T11:25:19.599Z,8404.00
2022-08-18T11:26:19.622Z,8380.00
2022-08-18T11:27:20.162Z,8132.00
2022-08-18T11:28:19.619Z,7804.00
2022-08-18T11:29:19.468Z,7500.00
2022-08-18T11:30:19.479Z,7336.00
2022-08-18T11:31:19.462Z,7260.00
2022-08-18T11:32:20.212Z,7200.00
2022-08-18T11:33:23.067Z,7096.00
2022-08-18T11:34:19.943Z,6976.00
2022-08-18T11:35:19.398Z,6840.00
2022-08-18T11:36:19.400Z,6636.00
2022-08-18T11:37:19.379Z,6504.00
2022-08-18T11:38:20.964Z,6504.00
2022-08-18T11:39:22.364Z,6636.00
2022-08-18T11:41:20.408Z,6948.00
2022-08-18T11:42:21.967Z,7216.00
2022-08-18T11:43:21.379Z,7464.00
2022-08-18T11:44:20.063Z,7684.00
2022-08-18T11:45:19.782Z,7868.00
2022-08-18T11:47:20.281Z,8188.00
2022-08-18T11:48:25.075Z,8268.00
2022-08-18T11:49:26.183Z,8284.00
2022-08-18T11:50:21.021Z,8088.00
2022-08-18T11:51:23.527Z,7816.00
2022-08-18T11:52:19.581Z,7672.00
2022-08-18T11:53:20.242Z,7584.00
2022-08-18T11:54:19.873Z,7564.00
2022-08-18T11:55:24.177Z,7668.00
2022-08-18T11:56:20.963Z,7924.00
2022-08-18T11:57:21.005Z,8056.00
2022-08-18T11:58:19.889Z,8152.00
2022-08-18T11:59:20.042Z,8204.00
2022-08-18T12:00:22.825Z,8096.00
2022-08-18T12:01:20.134Z,7856.00
2022-08-18T12:02:19.125Z,7560.00
2022-08-18T12:03:19.252Z,7364.00
2022-08-18T12:04:19.063Z,7376.00
2022-08-18T12:05:19.084Z,7468.00
2022-08-18T12:06:20.025Z,7576.00
2022-08-18T12:08:50.590Z,7376.00
2022-08-18T12:10:25.760Z,7208.00
2022-08-18T12:11:26.836Z,7112.00
2022-08-18T12:12:20.223Z,7212.00
2022-08-18T12:13:19.210Z,7792.00
2022-08-18T12:14:32.184Z,8444.00
2022-08-18T12:15:24.676Z,8604.00
2022-08-18T12:16:18.936Z,8692.00
2022-08-18T12:17:18.945Z,8696.00
2022-08-18T12:18:28.459Z,8600.00
2022-08-18T12:20:19.885Z,7972.00
2022-08-18T12:21:18.886Z,7280.00
2022-08-18T12:22:19.638Z,6404.00
2022-08-18T12:23:19.267Z,5636.00
2022-08-18T12:24:18.849Z,5076.00
2022-08-18T12:25:25.477Z,4716.00
2022-08-18T12:26:37.968Z,4512.00
2022-08-18T12:27:21.577Z,4452.00
2022-08-18T12:28:18.809Z,4524.00
2022-08-18T12:29:18.797Z,4708.00
2022-08-18T12:30:18.778Z,4996.00
2022-08-18T12:31:18.829Z,5384.00
2022-08-18T12:32:56.367Z,5836.00
2022-08-18T12:33:25.475Z,6280.00
2022-08-18T12:34:25.108Z,6712.00
2022-08-18T12:35:22.082Z,7084.00
2022-08-18T12:36:19.024Z,7376.00
2022-08-18T12:37:57.057Z,7620.00
2022-08-18T12:38:20.649Z,7820.00
2022-08-18T12:39:18.688Z,7960.00
2022-08-18T12:40:18.761Z,7976.00
2022-08-18T12:41:23.522Z,7928.00
2022-08-18T12:42:19.909Z,7828.00
2022-08-18T12:43:18.648Z,7528.00
2022-08-18T12:44:18.628Z,7272.00
2022-08-18T12:45:18.660Z,6940.00
2022-08-18T12:46:18.629Z,6836.00
2022-08-18T12:47:18.609Z,6880.00
2022-08-18T12:48:18.719Z,6988.00
2022-08-18T12:49:18.578Z,7032.00
2022-08-18T12:50:18.559Z,6992.00